sensor_id;sensor_type;location;lat;lon;timestamp;pressure;altitude;pressure_sealevel;temperature;humidity
6038;BME280;3047;42.600;23.470;2023-03-31T00:02:19;93007.66;;;9.28;61.53
6038;BME280;3047;42.600;23.470;2023-03-31T00:04:47;93014.28;;;9.31;61.44
6038;BME280;3047;42.600;23.470;2023-03-31T00:07:17;92993.28;;;8.98;63.28
6038;BME280;3047;42.600;23.470;2023-03-31T00:09:49;93008.25;;;9.04;63.20
6038;BME280;3047;42.600;23.470;2023-03-31T00:12:20;92999.88;;;9.02;62.21
6038;BME280;3047;42.600;23.470;2023-03-31T00:14:47;93019.03;;;9.09;63.22
6038;BME280;3047;42.600;23.470;2023-03-31T00:17:14;92988.47;;;8.87;63.29
6038;BME280;3047;42.600;23.470;2023-03-31T00:19:40;93005.81;;;8.99;63.56
6038;BME280;3047;42.600;23.470;2023-03-31T00:22:07;92997.38;;;9.02;62.63
6038;BME280;3047;42.600;23.470;2023-03-31T00:24:34;93004.00;;;9.06;62.94
6038;BME280;3047;42.600;23.470;2023-03-31T00:27:03;92991.50;;;9.01;63.13
6038;BME280;3047;42.600;23.470;2023-03-31T00:29:31;93002.13;;;9.14;62.69
6038;BME280;3047;42.600;23.470;2023-03-31T00:32:00;93009.03;;;9.06;62.83
6038;BME280;3047;42.600;23.470;2023-03-31T00:34:27;92998.78;;;9.13;62.78
6038;BME280;3047;42.600;23.470;2023-03-31T00:36:54;92997.94;;;9.13;62.19
6038;BME280;3047;42.600;23.470;2023-03-31T00:39:27;92999.59;;;9.14;62.59
6038;BME280;3047;42.600;23.470;2023-03-31T00:41:56;92987.69;;;9.21;62.80
6038;BME280;3047;42.600;23.470;2023-03-31T00:44:24;92989.63;;;9.09;63.71
6038;BME280;3047;42.600;23.470;2023-03-31T00:46:54;92980.53;;;9.04;62.94
6038;BME280;3047;42.600;23.470;2023-03-31T00:49:26;92982.13;;;9.08;63.31
6038;BME280;3047;42.600;23.470;2023-03-31T00:51:58;92977.84;;;9.10;63.21
6038;BME280;3047;42.600;23.470;2023-03-31T00:54:28;92981.25;;;9.09;64.32
6038;BME280;3047;42.600;23.470;2023-03-31T00:56:55;92976.09;;;9.13;63.52
6038;BME280;3047;42.600;23.470;2023-03-31T00:59:29;92981.94;;;9.15;64.78
6038;BME280;3047;42.600;23.470;2023-03-31T01:01:59;92973.50;;;9.16;64.21
6038;BME280;3047;42.600;23.470;2023-03-31T01:04:31;92964.19;;;9.19;65.05
6038;BME280;3047;42.600;23.470;2023-03-31T01:07:03;92964.19;;;9.19;64.40
6038;BME280;3047;42.600;23.470;2023-03-31T01:09:33;92937.03;;;8.97;64.82
6038;BME280;3047;42.600;23.470;2023-03-31T01:12:05;92951.00;;;9.09;64.29
6038;BME280;3047;42.600;23.470;2023-03-31T01:14:33;92969.22;;;9.20;64.49
6038;BME280;3047;42.600;23.470;2023-03-31T01:17:01;92941.94;;;9.02;64.67
6038;BME280;3047;42.600;23.470;2023-03-31T01:19:40;92974.28;;;9.19;64.82
6038;BME280;3047;42.600;23.470;2023-03-31T01:22:41;92966.88;;;9.12;66.42
6038;BME280;3047;42.600;23.470;2023-03-31T01:25:54;92966.78;;;9.17;65.81
6038;BME280;3047;42.600;23.470;2023-03-31T01:28:32;92963.19;;;9.26;65.06
6038;BME280;3047;42.600;23.470;2023-03-31T01:34:44;92975.34;;;9.43;64.15
6038;BME280;3047;42.600;23.470;2023-03-31T01:40:49;92981.19;;;9.45;65.63
6038;BME280;3047;42.600;23.470;2023-03-31T01:43:22;92987.72;;;9.52;66.16
6038;BME280;3047;42.600;23.470;2023-03-31T01:45:56;92989.50;;;9.48;67.26
6038;BME280;3047;42.600;23.470;2023-03-31T01:48:32;92994.44;;;9.53;66.11
6038;BME280;3047;42.600;23.470;2023-03-31T01:51:05;92995.94;;;9.58;66.59
6038;BME280;3047;42.600;23.470;2023-03-31T01:53:44;92986.88;;;9.53;65.33
6038;BME280;3047;42.600;23.470;2023-03-31T01:56:17;92995.38;;;9.49;66.99
6038;BME280;3047;42.600;23.470;2023-03-31T01:58:49;92996.91;;;9.54;67.54
6038;BME280;3047;42.600;23.470;2023-03-31T02:01:23;92995.88;;;9.61;67.16
6038;BME280;3047;42.600;23.470;2023-03-31T02:03:55;92984.78;;;9.67;66.13
6038;BME280;3047;42.600;23.470;2023-03-31T02:06:26;92960.41;;;9.36;68.50
6038;BME280;3047;42.600;23.470;2023-03-31T02:08:57;92971.25;;;9.38;68.48
6038;BME280;3047;42.600;23.470;2023-03-31T02:11:27;92998.47;;;9.58;68.47
6038;BME280;3047;42.600;23.470;2023-03-31T02:13:58;92962.25;;;9.30;69.39
6038;BME280;3047;42.600;23.470;2023-03-31T02:16:29;93002.50;;;9.64;67.94
6038;BME280;3047;42.600;23.470;2023-03-31T02:19:01;92978.50;;;9.51;68.69
6038;BME280;3047;42.600;23.470;2023-03-31T02:21:31;92974.66;;;9.37;69.45
6038;BME280;3047;42.600;23.470;2023-03-31T02:24:00;92944.22;;;9.11;70.34
6038;BME280;3047;42.600;23.470;2023-03-31T02:26:30;93005.47;;;9.49;70.88
6038;BME280;3047;42.600;23.470;2023-03-31T02:28:59;93011.13;;;9.57;70.78
6038;BME280;3047;42.600;23.470;2023-03-31T02:31:28;93013.91;;;9.46;72.13
6038;BME280;3047;42.600;23.470;2023-03-31T02:33:58;93022.28;;;9.48;71.69
6038;BME280;3047;42.600;23.470;2023-03-31T02:36:25;93031.13;;;9.63;73.09
6038;BME280;3047;42.600;23.470;2023-03-31T02:38:54;93020.59;;;9.49;73.03
6038;BME280;3047;42.600;23.470;2023-03-31T02:41:22;93037.91;;;9.61;74.35
6038;BME280;3047;42.600;23.470;2023-03-31T02:43:51;93038.88;;;9.57;71.72
6038;BME280;3047;42.600;23.470;2023-03-31T02:46:17;93037.91;;;9.61;77.67
6038;BME280;3047;42.600;23.470;2023-03-31T02:48:47;93043.75;;;9.63;78.53
6038;BME280;3047;42.600;23.470;2023-03-31T02:51:30;93044.91;;;9.50;80.96
6038;BME280;3047;42.600;23.470;2023-03-31T02:54:21;93042.28;;;9.54;78.49
6038;BME280;3047;42.600;23.470;2023-03-31T02:57:14;93050.66;;;9.56;81.21
6038;BME280;3047;42.600;23.470;2023-03-31T02:59:55;93050.78;;;9.50;84.68
6038;BME280;3047;42.600;23.470;2023-03-31T03:02:34;93045.59;;;9.56;87.10
6038;BME280;3047;42.600;23.470;2023-03-31T03:05:17;93019.75;;;9.48;87.88
6038;BME280;3047;42.600;23.470;2023-03-31T03:07:52;93038.19;;;9.50;90.48
6038;BME280;3047;42.600;23.470;2023-03-31T03:10:27;93027.69;;;9.33;95.77
6038;BME280;3047;42.600;23.470;2023-03-31T03:13:01;93020.72;;;9.44;96.00
6038;BME280;3047;42.600;23.470;2023-03-31T03:15:36;93011.72;;;9.34;98.82
6038;BME280;3047;42.600;23.470;2023-03-31T03:18:05;93007.59;;;9.30;98.66
6038;BME280;3047;42.600;23.470;2023-03-31T03:20:32;92997.59;;;9.27;98.84
6038;BME280;3047;42.600;23.470;2023-03-31T03:23:00;93001.00;;;9.26;100.00
6038;BME280;3047;42.600;23.470;2023-03-31T03:25:27;93003.44;;;9.29;100.00
6038;BME280;3047;42.600;23.470;2023-03-31T03:27:54;92961.22;;;9.04;99.63
6038;BME280;3047;42.600;23.470;2023-03-31T03:30:21;92975.91;;;9.21;100.00
6038;BME280;3047;42.600;23.470;2023-03-31T03:32:49;92949.38;;;9.06;100.00
6038;BME280;3047;42.600;23.470;2023-03-31T03:35:16;92972.69;;;9.16;100.00
6038;BME280;3047;42.600;23.470;2023-03-31T03:37:43;92968.47;;;9.16;98.11
6038;BME280;3047;42.600;23.470;2023-03-31T03:40:10;92983.53;;;9.18;100.00
6038;BME280;3047;42.600;23.470;2023-03-31T03:42:37;92976.91;;;9.14;98.86
6038;BME280;3047;42.600;23.470;2023-03-31T03:45:04;92984.41;;;9.17;98.52
6038;BME280;3047;42.600;23.470;2023-03-31T03:47:31;92976.78;;;9.19;99.66
6038;BME280;3047;42.600;23.470;2023-03-31T03:49:59;92994.31;;;9.25;93.41
6038;BME280;3047;42.600;23.470;2023-03-31T03:52:26;92992.66;;;9.24;96.07
6038;BME280;3047;42.600;23.470;2023-03-31T03:54:53;92986.81;;;9.22;98.02
6038;BME280;3047;42.600;23.470;2023-03-31T03:57:20;92975.03;;;9.22;98.88
6038;BME280;3047;42.600;23.470;2023-03-31T03:59:46;92916.13;;;8.94;97.61
6038;BME280;3047;42.600;23.470;2023-03-31T04:02:13;92964.06;;;9.25;97.19
6038;BME280;3047;42.600;23.470;2023-03-31T04:04:40;92943.25;;;9.16;97.18
6038;BME280;3047;42.600;23.470;2023-03-31T04:07:08;92959.78;;;9.27;97.28
6038;BME280;3047;42.600;23.470;2023-03-31T04:09:35;92953.22;;;9.21;96.69
6038;BME280;3047;42.600;23.470;2023-03-31T04:12:01;92957.47;;;9.19;99.48
6038;BME280;3047;42.600;23.470;2023-03-31T04:14:28;92960.78;;;9.21;99.42
6038;BME280;3047;42.600;23.470;2023-03-31T04:16:55;92952.41;;;9.19;100.00
6038;BME280;3047;42.600;23.470;2023-03-31T04:19:23;92962.41;;;9.24;98.68
6038;BME280;3047;42.600;23.470;2023-03-31T04:21:50;92906.81;;;8.97;98.06
6038;BME280;3047;42.600;23.470;2023-03-31T04:24:24;92978.81;;;9.38;99.46
6038;BME280;3047;42.600;23.470;2023-03-31T04:26:57;92981.16;;;9.46;100.00
6038;BME280;3047;42.600;23.470;2023-03-31T04:29:24;92996.19;;;9.49;100.00
6038;BME280;3047;42.600;23.470;2023-03-31T04:31:53;92992.72;;;9.53;100.00
6038;BME280;3047;42.600;23.470;2023-03-31T04:34:23;92982.56;;;9.56;97.59
6038;BME280;3047;42.600;23.470;2023-03-31T04:36:59;92923.88;;;9.19;98.04
6038;BME280;3047;42.600;23.470;2023-03-31T04:39:28;92974.78;;;9.31;100.00
6038;BME280;3047;42.600;23.470;2023-03-31T04:41:56;92981.50;;;9.32;98.35
6038;BME280;3047;42.600;23.470;2023-03-31T04:44:23;92976.72;;;9.22;98.32
6038;BME280;3047;42.600;23.470;2023-03-31T04:46:50;92929.53;;;8.96;96.28
6038;BME280;3047;42.600;23.470;2023-03-31T04:49:17;92977.31;;;9.31;97.16
6038;BME280;3047;42.600;23.470;2023-03-31T04:51:44;92983.97;;;9.34;97.58
6038;BME280;3047;42.600;23.470;2023-03-31T04:54:11;92976.09;;;9.46;96.24
6038;BME280;3047;42.600;23.470;2023-03-31T04:56:39;92975.09;;;9.53;96.18
6038;BME280;3047;42.600;23.470;2023-03-31T04:59:06;92981.09;;;9.48;96.71
6038;BME280;3047;42.600;23.470;2023-03-31T05:01:33;92978.75;;;9.41;98.39
6038;BME280;3047;42.600;23.470;2023-03-31T05:04:00;92978.75;;;9.41;96.84
6038;BME280;3047;42.600;23.470;2023-03-31T05:06:27;92961.78;;;9.48;95.79
6038;BME280;3047;42.600;23.470;2023-03-31T05:08:54;92951.28;;;9.31;97.37
6038;BME280;3047;42.600;23.470;2023-03-31T05:11:21;92885.91;;;8.94;98.20
6038;BME280;3047;42.600;23.470;2023-03-31T05:13:49;92942.44;;;9.49;96.51
6038;BME280;3047;42.600;23.470;2023-03-31T05:16:15;92941.38;;;9.56;96.51
6038;BME280;3047;42.600;23.470;2023-03-31T05:18:43;92946.09;;;9.68;96.70
6038;BME280;3047;42.600;23.470;2023-03-31T05:21:12;92949.47;;;9.69;95.07
6038;BME280;3047;42.600;23.470;2023-03-31T05:23:39;92919.63;;;9.52;96.23
6038;BME280;3047;42.600;23.470;2023-03-31T05:26:06;92945.09;;;9.74;96.06
6038;BME280;3047;42.600;23.470;2023-03-31T05:28:34;92927.19;;;9.83;93.85
6038;BME280;3047;42.600;23.470;2023-03-31T05:31:04;92945.31;;;9.97;93.09
6038;BME280;3047;42.600;23.470;2023-03-31T05:33:32;92934.31;;;9.98;94.12
6038;BME280;3047;42.600;23.470;2023-03-31T05:35:58;92929.06;;;10.06;92.21
6038;BME280;3047;42.600;23.470;2023-03-31T05:38:26;92908.34;;;9.95;87.15
6038;BME280;3047;42.600;23.470;2023-03-31T05:40:55;92924.31;;;10.25;87.85
6038;BME280;3047;42.600;23.470;2023-03-31T05:43:22;92938.41;;;10.32;85.22
6038;BME280;3047;42.600;23.470;2023-03-31T05:45:49;92929.94;;;10.34;86.39
6038;BME280;3047;42.600;23.470;2023-03-31T05:48:18;92931.19;;;10.48;85.13
6038;BME280;3047;42.600;23.470;2023-03-31T05:50:45;92932.91;;;10.47;86.12
6038;BME280;3047;42.600;23.470;2023-03-31T05:53:12;92935.69;;;10.66;83.24
6038;BME280;3047;42.600;23.470;2023-03-31T05:55:39;92944.44;;;10.82;82.47
6038;BME280;3047;42.600;23.470;2023-03-31T05:58:06;92937.09;;;11.01;81.99
6038;BME280;3047;42.600;23.470;2023-03-31T06:00:34;92856.69;;;10.61;78.88
6038;BME280;3047;42.600;23.470;2023-03-31T06:03:02;92897.53;;;11.00;80.38
6038;BME280;3047;42.600;23.470;2023-03-31T06:05:33;92950.22;;;11.37;81.60
6038;BME280;3047;42.600;23.470;2023-03-31T06:08:00;92946.00;;;11.63;79.33
6038;BME280;3047;42.600;23.470;2023-03-31T06:10:28;92939.50;;;11.79;75.57
6038;BME280;3047;42.600;23.470;2023-03-31T06:12:55;92926.63;;;11.87;75.00
6038;BME280;3047;42.600;23.470;2023-03-31T06:15:22;92949.34;;;12.12;74.46
6038;BME280;3047;42.600;23.470;2023-03-31T06:17:49;92868.13;;;11.71;75.07
6038;BME280;3047;42.600;23.470;2023-03-31T06:20:16;92955.94;;;12.16;76.90
6038;BME280;3047;42.600;23.470;2023-03-31T06:22:44;92955.50;;;12.27;75.94
6038;BME280;3047;42.600;23.470;2023-03-31T06:25:10;92955.41;;;12.30;75.93
6038;BME280;3047;42.600;23.470;2023-03-31T06:27:37;92946.44;;;12.21;73.49
6038;BME280;3047;42.600;23.470;2023-03-31T06:30:06;92952.06;;;12.06;74.20
6038;BME280;3047;42.600;23.470;2023-03-31T06:32:33;92952.25;;;11.76;76.94
6038;BME280;3047;42.600;23.470;2023-03-31T06:34:59;92944.34;;;11.87;76.75
6038;BME280;3047;42.600;23.470;2023-03-31T06:37:26;92947.84;;;11.81;77.51
6038;BME280;3047;42.600;23.470;2023-03-31T06:39:54;92946.41;;;11.74;77.25
6038;BME280;3047;42.600;23.470;2023-03-31T06:42:21;92830.34;;;10.95;78.49
6038;BME280;3047;42.600;23.470;2023-03-31T06:44:48;92950.81;;;11.69;77.78
6038;BME280;3047;42.600;23.470;2023-03-31T06:47:15;92953.50;;;11.64;78.70
6038;BME280;3047;42.600;23.470;2023-03-31T06:49:41;92948.94;;;11.51;79.94
6038;BME280;3047;42.600;23.470;2023-03-31T06:52:08;92938.97;;;11.21;80.32
6038;BME280;3047;42.600;23.470;2023-03-31T06:54:35;92897.47;;;11.02;81.62
6038;BME280;3047;42.600;23.470;2023-03-31T06:57:05;92949.03;;;11.48;81.55
6038;BME280;3047;42.600;23.470;2023-03-31T06:59:32;92949.19;;;11.43;82.24
6038;BME280;3047;42.600;23.470;2023-03-31T07:01:58;92952.69;;;11.64;79.91
6038;BME280;3047;42.600;23.470;2023-03-31T07:04:26;92948.53;;;11.61;80.93
6038;BME280;3047;42.600;23.470;2023-03-31T07:06:52;92947.47;;;11.69;80.63
6038;BME280;3047;42.600;23.470;2023-03-31T07:09:20;92940.44;;;11.77;78.83
6038;BME280;3047;42.600;23.470;2023-03-31T07:11:48;92918.31;;;11.82;78.70
6038;BME280;3047;42.600;23.470;2023-03-31T07:14:16;92925.47;;;12.18;77.42
6038;BME280;3047;42.600;23.470;2023-03-31T07:16:48;92925.88;;;12.52;76.51
6038;BME280;3047;42.600;23.470;2023-03-31T07:19:15;92905.66;;;12.73;73.56
6038;BME280;3047;42.600;23.470;2023-03-31T07:21:41;92910.25;;;13.05;73.22
6038;BME280;3047;42.600;23.470;2023-03-31T07:24:08;92894.16;;;13.27;70.52
6038;BME280;3047;42.600;23.470;2023-03-31T07:26:35;92785.31;;;12.81;70.48
6038;BME280;3047;42.600;23.470;2023-03-31T07:29:02;92840.88;;;13.47;65.58
6038;BME280;3047;42.600;23.470;2023-03-31T07:31:32;92854.25;;;13.89;64.50
6038;BME280;3047;42.600;23.470;2023-03-31T07:34:00;92879.50;;;14.29;63.06
6038;BME280;3047;42.600;23.470;2023-03-31T07:36:27;92846.97;;;14.19;62.87
6038;BME280;3047;42.600;23.470;2023-03-31T07:38:54;92875.72;;;14.57;60.15
6038;BME280;3047;42.600;23.470;2023-03-31T07:41:21;92871.19;;;14.81;61.15
6038;BME280;3047;42.600;23.470;2023-03-31T07:43:48;92878.31;;;14.92;60.11
6038;BME280;3047;42.600;23.470;2023-03-31T07:46:17;92845.66;;;14.82;58.38
6038;BME280;3047;42.600;23.470;2023-03-31T07:48:46;92881.59;;;15.28;57.64
6038;BME280;3047;42.600;23.470;2023-03-31T07:51:14;92865.75;;;15.39;58.11
6038;BME280;3047;42.600;23.470;2023-03-31T07:53:40;92862.09;;;15.45;56.65
6038;BME280;3047;42.600;23.470;2023-03-31T07:56:07;92858.97;;;15.40;56.55
6038;BME280;3047;42.600;23.470;2023-03-31T07:58:34;92869.13;;;15.57;57.16
6038;BME280;3047;42.600;23.470;2023-03-31T08:01:02;92817.53;;;15.53;54.36
6038;BME280;3047;42.600;23.470;2023-03-31T08:03:29;92867.91;;;15.97;54.54
6038;BME280;3047;42.600;23.470;2023-03-31T08:05:57;92865.84;;;16.04;54.07
6038;BME280;3047;42.600;23.470;2023-03-31T08:08:24;92870.75;;;15.91;54.10
6038;BME280;3047;42.600;23.470;2023-03-31T08:10:51;92865.69;;;16.07;54.42
6038;BME280;3047;42.600;23.470;2023-03-31T08:13:18;92859.78;;;16.22;53.34
6038;BME280;3047;42.600;23.470;2023-03-31T08:15:45;92861.56;;;16.36;52.95
6038;BME280;3047;42.600;23.470;2023-03-31T08:18:12;92864.13;;;16.36;53.74
6038;BME280;3047;42.600;23.470;2023-03-31T08:20:38;92864.88;;;16.22;52.37
6038;BME280;3047;42.600;23.470;2023-03-31T08:23:06;92820.41;;;15.80;53.27
6038;BME280;3047;42.600;23.470;2023-03-31T08:25:35;92847.34;;;15.85;54.33
6038;BME280;3047;42.600;23.470;2023-03-31T08:28:02;92812.34;;;15.72;54.98
6038;BME280;3047;42.600;23.470;2023-03-31T08:30:29;92840.13;;;15.93;55.91
6038;BME280;3047;42.600;23.470;2023-03-31T08:32:56;92843.91;;;16.01;56.32
6038;BME280;3047;42.600;23.470;2023-03-31T08:35:23;92838.06;;;16.31;55.65
6038;BME280;3047;42.600;23.470;2023-03-31T08:37:49;92839.19;;;16.57;55.17
6038;BME280;3047;42.600;23.470;2023-03-31T08:40:20;92832.22;;;16.91;53.85
6038;BME280;3047;42.600;23.470;2023-03-31T08:42:49;92816.66;;;16.95;54.87
6038;BME280;3047;42.600;23.470;2023-03-31T08:45:20;92824.22;;;16.97;54.36
6038;BME280;3047;42.600;23.470;2023-03-31T08:47:51;92845.63;;;16.94;52.94
6038;BME280;3047;42.600;23.470;2023-03-31T08:50:22;92843.84;;;16.80;54.10
6038;BME280;3047;42.600;23.470;2023-03-31T08:53:03;92781.00;;;16.64;52.24
6038;BME280;3047;42.600;23.470;2023-03-31T08:55:46;92842.50;;;17.19;51.27
6038;BME280;3047;42.600;23.470;2023-03-31T08:58:26;92838.84;;;17.38;53.26
6038;BME280;3047;42.600;23.470;2023-03-31T09:01:01;92842.63;;;17.46;53.11
6038;BME280;3047;42.600;23.470;2023-03-31T09:03:38;92834.13;;;17.46;51.57
6038;BME280;3047;42.600;23.470;2023-03-31T09:06:13;92745.38;;;16.92;51.20
6038;BME280;3047;42.600;23.470;2023-03-31T09:08:41;92812.81;;;17.47;48.13
6038;BME280;3047;42.600;23.470;2023-03-31T09:11:13;92805.69;;;17.66;49.79
6038;BME280;3047;42.600;23.470;2023-03-31T09:13:55;92805.13;;;17.90;49.08
6038;BME280;3047;42.600;23.470;2023-03-31T09:16:30;92809.66;;;18.13;45.63
6038;BME280;3047;42.600;23.470;2023-03-31T09:18:59;92754.03;;;17.90;44.60
6038;BME280;3047;42.600;23.470;2023-03-31T09:21:29;92795.88;;;18.16;44.48
6038;BME280;3047;42.600;23.470;2023-03-31T09:24:03;92747.28;;;17.89;43.25
6038;BME280;3047;42.600;23.470;2023-03-31T09:26:37;92777.88;;;18.17;44.43
6038;BME280;3047;42.600;23.470;2023-03-31T09:29:09;92792.88;;;18.36;43.38
6038;BME280;3047;42.600;23.470;2023-03-31T09:31:41;92786.03;;;18.37;43.55
6038;BME280;3047;42.600;23.470;2023-03-31T09:34:13;92798.28;;;18.32;44.38
6038;BME280;3047;42.600;23.470;2023-03-31T09:36:41;92797.13;;;18.50;44.87
6038;BME280;3047;42.600;23.470;2023-03-31T09:39:11;92796.75;;;18.56;42.68
6038;BME280;3047;42.600;23.470;2023-03-31T09:41:43;92798.81;;;18.64;42.68
6038;BME280;3047;42.600;23.470;2023-03-31T09:44:22;92799.16;;;18.45;41.76
6038;BME280;3047;42.600;23.470;2023-03-31T09:46:50;92800.06;;;18.17;42.10
6038;BME280;3047;42.600;23.470;2023-03-31T09:49:19;92793.78;;;18.08;42.85
6038;BME280;3047;42.600;23.470;2023-03-31T09:51:48;92677.31;;;17.21;42.95
6038;BME280;3047;42.600;23.470;2023-03-31T09:54:23;92790.75;;;17.74;43.18
6038;BME280;3047;42.600;23.470;2023-03-31T09:56:55;92779.63;;;17.47;43.59
6038;BME280;3047;42.600;23.470;2023-03-31T09:59:23;92779.41;;;17.50;44.75
6038;BME280;3047;42.600;23.470;2023-03-31T10:01:57;92772.84;;;17.60;44.79
6038;BME280;3047;42.600;23.470;2023-03-31T10:04:28;92725.91;;;17.34;43.72
6038;BME280;3047;42.600;23.470;2023-03-31T10:06:56;92773.03;;;17.71;43.94
6038;BME280;3047;42.600;23.470;2023-03-31T10:09:25;92746.38;;;17.61;43.78
6038;BME280;3047;42.600;23.470;2023-03-31T10:11:57;92759.59;;;17.82;44.30
6038;BME280;3047;42.600;23.470;2023-03-31T10:14:26;92721.50;;;17.79;43.35
6038;BME280;3047;42.600;23.470;2023-03-31T10:17:02;92746.53;;;18.01;43.09
6038;BME280;3047;42.600;23.470;2023-03-31T10:19:31;92746.69;;;17.98;43.06
6038;BME280;3047;42.600;23.470;2023-03-31T10:22:00;92747.69;;;17.83;44.01
6038;BME280;3047;42.600;23.470;2023-03-31T10:24:36;92641.31;;;16.97;44.04
6038;BME280;3047;42.600;23.470;2023-03-31T10:27:05;92742.44;;;17.70;43.27
6038;BME280;3047;42.600;23.470;2023-03-31T10:29:33;92742.66;;;17.67;44.67
6038;BME280;3047;42.600;23.470;2023-03-31T10:32:07;92747.66;;;17.68;43.98
6038;BME280;3047;42.600;23.470;2023-03-31T10:34:40;92745.84;;;17.56;43.65
6038;BME280;3047;42.600;23.470;2023-03-31T10:37:13;92695.19;;;17.07;43.66
6038;BME280;3047;42.600;23.470;2023-03-31T10:39:42;92728.72;;;16.87;45.17
6038;BME280;3047;42.600;23.470;2023-03-31T10:42:18;92700.69;;;16.71;45.19
6038;BME280;3047;42.600;23.470;2023-03-31T10:44:46;92739.56;;;16.90;45.54
6038;BME280;3047;42.600;23.470;2023-03-31T10:47:18;92738.00;;;16.88;45.28
6038;BME280;3047;42.600;23.470;2023-03-31T10:49:48;92729.63;;;17.00;45.30
6038;BME280;3047;42.600;23.470;2023-03-31T10:52:18;92705.22;;;16.96;44.95
6038;BME280;3047;42.600;23.470;2023-03-31T10:54:46;92653.31;;;16.52;44.60
6038;BME280;3047;42.600;23.470;2023-03-31T10:57:16;92720.16;;;16.88;45.57
6038;BME280;3047;42.600;23.470;2023-03-31T11:00:11;92731.81;;;16.77;45.36
6038;BME280;3047;42.600;23.470;2023-03-31T11:03:06;92725.81;;;16.63;45.17
6038;BME280;3047;42.600;23.470;2023-03-31T11:05:41;92731.88;;;16.46;46.15
6038;BME280;3047;42.600;23.470;2023-03-31T11:08:20;92717.69;;;16.42;46.74
6038;BME280;3047;42.600;23.470;2023-03-31T11:11:07;92719.50;;;16.24;46.65
6038;BME280;3047;42.600;23.470;2023-03-31T11:13:44;92708.72;;;16.04;46.51
6038;BME280;3047;42.600;23.470;2023-03-31T11:16:17;92690.63;;;16.09;46.08
6038;BME280;3047;42.600;23.470;2023-03-31T11:19:00;92722.09;;;16.08;47.62
6038;BME280;3047;42.600;23.470;2023-03-31T11:21:36;92712.00;;;16.06;47.00
6038;BME280;3047;42.600;23.470;2023-03-31T11:24:13;92705.66;;;16.14;46.99
6038;BME280;3047;42.600;23.470;2023-03-31T11:26:47;92682.75;;;15.98;47.42
6038;BME280;3047;42.600;23.470;2023-03-31T11:29:28;92707.25;;;16.00;48.17
6038;BME280;3047;42.600;23.470;2023-03-31T11:32:20;92698.31;;;15.93;48.40
6038;BME280;3047;42.600;23.470;2023-03-31T11:35:02;92657.41;;;15.80;47.75
6038;BME280;3047;42.600;23.470;2023-03-31T11:37:40;92661.19;;;15.89;47.68
6038;BME280;3047;42.600;23.470;2023-03-31T11:40:26;92683.31;;;16.03;48.09
6038;BME280;3047;42.600;23.470;2023-03-31T11:42:58;92680.72;;;16.04;47.29
6038;BME280;3047;42.600;23.470;2023-03-31T11:45:30;92677.50;;;16.01;48.09
6038;BME280;3047;42.600;23.470;2023-03-31T11:48:01;92644.50;;;15.83;49.08
6038;BME280;3047;42.600;23.470;2023-03-31T11:50:32;92571.31;;;15.25;48.99
6038;BME280;3047;42.600;23.470;2023-03-31T11:53:06;92669.88;;;16.01;48.74
6038;BME280;3047;42.600;23.470;2023-03-31T11:55:37;92676.75;;;15.99;47.79
6038;BME280;3047;42.600;23.470;2023-03-31T11:58:08;92631.63;;;15.71;48.33
6038;BME280;3047;42.600;23.470;2023-03-31T12:00:41;92548.94;;;15.46;48.42
6038;BME280;3047;42.600;23.470;2023-03-31T12:03:12;92655.84;;;16.08;47.84
6038;BME280;3047;42.600;23.470;2023-03-31T12:05:44;92656.88;;;16.05;48.18
6038;BME280;3047;42.600;23.470;2023-03-31T12:08:16;92640.84;;;16.03;47.61
6038;BME280;3047;42.600;23.470;2023-03-31T12:10:50;92635.41;;;16.10;48.37
6038;BME280;3047;42.600;23.470;2023-03-31T12:13:39;92629.50;;;16.09;49.43
6038;BME280;3047;42.600;23.470;2023-03-31T12:16:13;92634.16;;;16.31;50.39
6038;BME280;3047;42.600;23.470;2023-03-31T12:18:46;92628.47;;;16.42;50.10
6038;BME280;3047;42.600;23.470;2023-03-31T12:21:19;92617.81;;;16.49;50.43
6038;BME280;3047;42.600;23.470;2023-03-31T12:23:48;92621.34;;;16.47;51.03
6038;BME280;3047;42.600;23.470;2023-03-31T12:26:28;92625.56;;;16.62;50.88
6038;BME280;3047;42.600;23.470;2023-03-31T12:29:04;92622.66;;;16.54;49.33
6038;BME280;3047;42.600;23.470;2023-03-31T12:31:36;92637.03;;;16.69;49.05
6038;BME280;3047;42.600;23.470;2023-03-31T12:34:07;92587.03;;;16.38;48.56
6038;BME280;3047;42.600;23.470;2023-03-31T12:36:47;92620.63;;;16.59;48.53
6038;BME280;3047;42.600;23.470;2023-03-31T12:39:27;92621.16;;;16.36;49.30
6038;BME280;3047;42.600;23.470;2023-03-31T12:42:10;92560.38;;;15.85;50.13
6038;BME280;3047;42.600;23.470;2023-03-31T12:44:49;92610.03;;;16.22;50.25
6038;BME280;3047;42.600;23.470;2023-03-31T12:47:31;92604.97;;;16.37;49.95
6038;BME280;3047;42.600;23.470;2023-03-31T12:50:12;92601.50;;;16.38;48.69
6038;BME280;3047;42.600;23.470;2023-03-31T12:52:48;92601.88;;;16.46;49.25
6038;BME280;3047;42.600;23.470;2023-03-31T12:55:35;92571.38;;;16.30;50.01
6038;BME280;3047;42.600;23.470;2023-03-31T12:58:35;92585.75;;;16.60;49.70
6038;BME280;3047;42.600;23.470;2023-03-31T13:01:05;92585.84;;;16.72;49.34
6038;BME280;3047;42.600;23.470;2023-03-31T13:03:52;92571.38;;;16.87;48.20
6038;BME280;3047;42.600;23.470;2023-03-31T13:06:50;92562.84;;;16.74;47.91
6038;BME280;3047;42.600;23.470;2023-03-31T13:09:54;92556.09;;;16.73;48.79
6038;BME280;3047;42.600;23.470;2023-03-31T13:12:23;92556.16;;;16.71;48.55
6038;BME280;3047;42.600;23.470;2023-03-31T13:14:53;92545.88;;;16.73;48.20
6038;BME280;3047;42.600;23.470;2023-03-31T13:17:26;92545.13;;;16.71;49.20
6038;BME280;3047;42.600;23.470;2023-03-31T13:19:56;92532.66;;;16.66;49.28
6038;BME280;3047;42.600;23.470;2023-03-31T13:22:42;92527.38;;;16.69;49.88
6038;BME280;3047;42.600;23.470;2023-03-31T13:25:44;92516.66;;;16.78;49.30
6038;BME280;3047;42.600;23.470;2023-03-31T13:28:33;92512.06;;;16.98;48.75
6038;BME280;3047;42.600;23.470;2023-03-31T13:31:05;92495.88;;;17.12;49.56
6038;BME280;3047;42.600;23.470;2023-03-31T13:33:56;92485.69;;;17.24;48.41
6038;BME280;3047;42.600;23.470;2023-03-31T13:36:53;92487.16;;;17.28;47.76
6038;BME280;3047;42.600;23.470;2023-03-31T13:42:26;92428.50;;;16.74;48.54
6038;BME280;3047;42.600;23.470;2023-03-31T13:45:09;92472.53;;;17.18;47.35
6038;BME280;3047;42.600;23.470;2023-03-31T13:48:03;92471.50;;;17.20;48.17
6038;BME280;3047;42.600;23.470;2023-03-31T13:50:54;92451.28;;;17.17;46.98